sensor_id;sensor_type;location;lat;lon;timestamp;pressure;altitude;pressure_sealevel;temperature;humidity
21449;BME280;10885;52.830;13.788;2023-12-20T06:16:24;100296.50;;;4.93;100.00
21449;BME280;10885;52.830;13.788;2023-12-20T06:21:27;100308.72;;;4.87;100.00
21449;BME280;10885;52.830;13.788;2023-12-20T06:26:30;100303.00;;;4.90;100.00
21449;BME280;10885;52.830;13.788;2023-12-20T06:31:33;100297.44;;;4.94;100.00
21449;BME280;10885;52.830;13.788;2023-12-20T06:36:36;100294.88;;;4.94;100.00
21449;BME280;10885;52.830;13.788;2023-12-20T06:41:38;100304.78;;;4.91;100.00
21449;BME280;10885;52.830;13.788;2023-12-20T06:46:41;100307.97;;;4.88;100.00
21449;BME280;10885;52.830;13.788;2023-12-20T06:51:44;100292.63;;;4.87;100.00
21449;BME280;10885;52.830;13.788;2023-12-20T06:56:46;100287.56;;;4.87;100.00
21449;BME280;10885;52.830;13.788;2023-12-20T07:01:49;100289.97;;;4.85;100.00
21449;BME280;10885;52.830;13.788;2023-12-20T07:06:52;100292.22;;;4.92;100.00
21449;BME280;10885;52.830;13.788;2023-12-20T07:11:59;100288.16;;;4.94;100.00
21449;BME280;10885;52.830;13.788;2023-12-20T07:17:05;100295.75;;;4.94;100.00
21449;BME280;10885;52.830;13.788;2023-12-20T07:22:10;100291.19;;;5.01;100.00
21449;BME280;10885;52.830;13.788;2023-12-20T07:27:13;100289.88;;;5.06;100.00
21449;BME280;10885;52.830;13.788;2023-12-20T07:32:15;100295.19;;;5.09;100.00
21449;BME280;10885;52.830;13.788;2023-12-20T07:37:18;100285.19;;;5.10;100.00
21449;BME280;10885;52.830;13.788;2023-12-20T07:42:21;100284.66;;;5.14;100.00
21449;BME280;10885;52.830;13.788;2023-12-20T07:47:24;100300.09;;;5.17;100.00
21449;BME280;10885;52.830;13.788;2023-12-20T07:52:28;100292.06;;;5.23;100.00
21449;BME280;10885;52.830;13.788;2023-12-20T07:57:31;100294.22;;;5.29;100.00
21449;BME280;10885;52.830;13.788;2023-12-20T08:02:34;100288.47;;;5.31;99.35
21449;BME280;10885;52.830;13.788;2023-12-20T08:07:36;100282.13;;;5.36;99.40
21449;BME280;10885;52.830;13.788;2023-12-20T08:12:39;100290.84;;;5.40;99.45
21449;BME280;10885;52.830;13.788;2023-12-20T08:17:42;100283.59;;;5.45;98.98
21449;BME280;10885;52.830;13.788;2023-12-20T08:22:45;100282.94;;;5.47;98.69
21449;BME280;10885;52.830;13.788;2023-12-20T08:27:48;100272.22;;;5.51;99.04
21449;BME280;10885;52.830;13.788;2023-12-20T08:32:51;100269.41;;;5.58;99.08
21449;BME280;10885;52.830;13.788;2023-12-20T08:37:53;100275.41;;;5.71;98.33
21449;BME280;10885;52.830;13.788;2023-12-20T08:42:57;100264.09;;;5.77;98.30
21449;BME280;10885;52.830;13.788;2023-12-20T08:48:00;100249.31;;;5.84;97.34
21449;BME280;10885;52.830;13.788;2023-12-20T08:53:05;100245.34;;;5.99;97.00
21449;BME280;10885;52.830;13.788;2023-12-20T08:58:08;100258.59;;;6.07;95.96
21449;BME280;10885;52.830;13.788;2023-12-20T09:03:11;100253.34;;;6.15;96.02
21449;BME280;10885;52.830;13.788;2023-12-20T09:08:13;100248.25;;;6.15;95.43
21449;BME280;10885;52.830;13.788;2023-12-20T09:13:16;100254.34;;;6.17;95.12
21449;BME280;10885;52.830;13.788;2023-12-20T09:18:19;100238.97;;;6.16;95.61
21449;BME280;10885;52.830;13.788;2023-12-20T09:23:21;100233.66;;;6.13;95.14
21449;BME280;10885;52.830;13.788;2023-12-20T09:28:24;100243.63;;;6.22;95.24
21449;BME280;10885;52.830;13.788;2023-12-20T09:33:27;100238.97;;;6.28;94.33
21449;BME280;10885;52.830;13.788;2023-12-20T09:38:29;100230.25;;;6.24;94.29
21449;BME280;10885;52.830;13.788;2023-12-20T09:43:35;100215.56;;;6.20;94.88
21449;BME280;10885;52.830;13.788;2023-12-20T09:48:40;100221.75;;;6.24;95.32
21449;BME280;10885;52.830;13.788;2023-12-20T09:53:44;100231.91;;;6.24;94.81
21449;BME280;10885;52.830;13.788;2023-12-20T09:58:47;100225.84;;;6.22;94.14
21449;BME280;10885;52.830;13.788;2023-12-20T10:03:51;100217.41;;;6.23;95.16
21449;BME280;10885;52.830;13.788;2023-12-20T10:08:56;100199.88;;;6.26;94.86
21449;BME280;10885;52.830;13.788;2023-12-20T10:13:59;100188.34;;;6.43;94.31
21449;BME280;10885;52.830;13.788;2023-12-20T10:19:05;100182.72;;;6.35;93.94
21449;BME280;10885;52.830;13.788;2023-12-20T10:24:07;100165.16;;;6.38;93.67
21449;BME280;10885;52.830;13.788;2023-12-20T10:29:10;100146.56;;;6.39;95.58
21449;BME280;10885;52.830;13.788;2023-12-20T10:34:12;100158.28;;;6.37;94.43
21449;BME280;10885;52.830;13.788;2023-12-20T10:39:16;100145.69;;;6.38;95.04
21449;BME280;10885;52.830;13.788;2023-12-20T10:44:20;100135.31;;;6.47;94.36
21449;BME280;10885;52.830;13.788;2023-12-20T10:49:23;100134.72;;;6.75;94.04
21449;BME280;10885;52.830;13.788;2023-12-20T10:54:26;100119.72;;;6.91;91.47
21449;BME280;10885;52.830;13.788;2023-12-20T10:59:29;100115.50;;;7.04;91.69
21449;BME280;10885;52.830;13.788;2023-12-20T11:04:51;100113.94;;;7.06;91.97
21449;BME280;10885;52.830;13.788;2023-12-20T11:10:08;100092.38;;;6.89;91.57
21449;BME280;10885;52.830;13.788;2023-12-20T11:15:13;100081.19;;;6.73;92.79
21449;BME280;10885;52.830;13.788;2023-12-20T11:20:17;100057.63;;;6.76;92.99
21449;BME280;10885;52.830;13.788;2023-12-20T11:25:20;100044.75;;;6.86;91.78
21449;BME280;10885;52.830;13.788;2023-12-20T11:30:23;100043.75;;;6.84;91.89
21449;BME280;10885;52.830;13.788;2023-12-20T11:35:26;100031.88;;;6.96;91.35
21449;BME280;10885;52.830;13.788;2023-12-20T11:40:33;100016.28;;;7.17;92.26
21449;BME280;10885;52.830;13.788;2023-12-20T11:45:37;100013.13;;;7.08;91.42
21449;BME280;10885;52.830;13.788;2023-12-20T11:50:40;99989.47;;;7.09;91.78
21449;BME280;10885;52.830;13.788;2023-12-20T11:55:42;99977.63;;;7.36;91.73
21449;BME280;10885;52.830;13.788;2023-12-20T12:00:45;99979.75;;;7.16;91.47
21449;BME280;10885;52.830;13.788;2023-12-20T12:05:48;99960.69;;;6.85;91.90
21449;BME280;10885;52.830;13.788;2023-12-20T12:10:51;99956.94;;;6.66;94.29
21449;BME280;10885;52.830;13.788;2023-12-20T12:15:54;99936.94;;;6.46;94.22
21449;BME280;10885;52.830;13.788;2023-12-20T12:21:00;99912.66;;;6.37;95.55
21449;BME280;10885;52.830;13.788;2023-12-20T12:26:04;99908.41;;;6.25;95.65
21449;BME280;10885;52.830;13.788;2023-12-20T12:31:07;99901.25;;;6.19;96.49
21449;BME280;10885;52.830;13.788;2023-12-20T12:36:10;99908.78;;;6.17;96.67
21449;BME280;10885;52.830;13.788;2023-12-20T12:41:14;99915.72;;;6.20;97.20
21449;BME280;10885;52.830;13.788;2023-12-20T12:46:17;99906.91;;;6.15;97.11
21449;BME280;10885;52.830;13.788;2023-12-20T12:51:20;99912.47;;;6.09;96.71
21449;BME280;10885;52.830;13.788;2023-12-20T12:56:23;99902.78;;;6.04;96.88
21449;BME280;10885;52.830;13.788;2023-12-20T13:01:25;99905.19;;;6.02;97.67
21449;BME280;10885;52.830;13.788;2023-12-20T13:06:28;99898.34;;;6.01;97.18
21449;BME280;10885;52.830;13.788;2023-12-20T13:11:32;99924.13;;;5.94;97.09
21449;BME280;10885;52.830;13.788;2023-12-20T13:16:34;99934.41;;;5.84;96.47
21449;BME280;10885;52.830;13.788;2023-12-20T13:21:37;99930.44;;;5.75;94.91
21449;BME280;10885;52.830;13.788;2023-12-20T13:26:40;99937.84;;;5.72;95.19
21449;BME280;10885;52.830;13.788;2023-12-20T13:31:42;99945.81;;;5.65;95.14
21449;BME280;10885;52.830;13.788;2023-12-20T13:36:45;99948.81;;;5.60;95.48
21449;BME280;10885;52.830;13.788;2023-12-20T13:41:50;99937.56;;;5.56;94.77
21449;BME280;10885;52.830;13.788;2023-12-20T13:46:52;99941.66;;;5.54;95.01
21449;BME280;10885;52.830;13.788;2023-12-20T13:51:55;99940.66;;;5.52;95.25
21449;BME280;10885;52.830;13.788;2023-12-20T13:56:58;99953.66;;;5.56;95.55
21449;BME280;10885;52.830;13.788;2023-12-20T14:02:14;99965.53;;;5.69;96.38
21449;BME280;10885;52.830;13.788;2023-12-20T14:07:17;99951.09;;;5.80;95.92
21449;BME280;10885;52.830;13.788;2023-12-20T14:12:20;99948.75;;;5.83;94.96
21449;BME280;10885;52.830;13.788;2023-12-20T14:17:22;99967.00;;;5.77;94.92
21449;BME280;10885;52.830;13.788;2023-12-20T14:22:25;99972.28;;;5.69;95.38
21449;BME280;10885;52.830;13.788;2023-12-20T14:27:28;99965.22;;;5.65;96.11
21449;BME280;10885;52.830;13.788;2023-12-20T14:32:31;99972.66;;;5.62;95.82
21449;BME280;10885;52.830;13.788;2023-12-20T14:37:35;99979.03;;;5.56;95.88
21449;BME280;10885;52.830;13.788;2023-12-20T14:42:37;99975.41;;;5.53;96.05
21449;BME280;10885;52.830;13.788;2023-12-20T14:47:40;99992.84;;;5.48;96.51
21449;BME280;10885;52.830;13.788;2023-12-20T14:52:43;99995.06;;;5.44;96.03
21449;BME280;10885;52.830;13.788;2023-12-20T14:57:46;100006.75;;;5.30;94.50
21449;BME280;10885;52.830;13.788;2023-12-20T15:02:49;100013.44;;;5.17;93.91
21449;BME280;10885;52.830;13.788;2023-12-20T15:07:52;100015.41;;;4.98;92.83
21449;BME280;10885;52.830;13.788;2023-12-20T15:12:55;100031.44;;;4.75;92.57
21449;BME280;10885;52.830;13.788;2023-12-20T15:17:58;100039.63;;;4.61;93.14
21449;BME280;10885;52.830;13.788;2023-12-20T15:23:01;100044.28;;;4.44;92.56
21449;BME280;10885;52.830;13.788;2023-12-20T15:28:09;100041.34;;;4.28;92.93
21449;BME280;10885;52.830;13.788;2023-12-20T15:33:13;100055.47;;;4.14;93.22
21449;BME280;10885;52.830;13.788;2023-12-20T15:38:16;100053.38;;;3.98;93.94
21449;BME280;10885;52.830;13.788;2023-12-20T15:43:19;100061.78;;;3.87;94.50
21449;BME280;10885;52.830;13.788;2023-12-20T15:48:22;100051.81;;;3.78;95.60
21449;BME280;10885;52.830;13.788;2023-12-20T15:53:30;100048.78;;;3.72;95.87
21449;BME280;10885;52.830;13.788;2023-12-20T15:58:33;100048.31;;;3.66;96.42
21449;BME280;10885;52.830;13.788;2023-12-20T16:03:36;100048.94;;;3.63;97.31
21449;BME280;10885;52.830;13.788;2023-12-20T16:08:48;100053.47;;;3.77;97.26
21449;BME280;10885;52.830;13.788;2023-12-20T16:13:50;100049.13;;;3.87;97.46
21449;BME280;10885;52.830;13.788;2023-12-20T16:18:53;100052.09;;;4.03;96.89
21449;BME280;10885;52.830;13.788;2023-12-20T16:23:56;100057.25;;;4.15;96.36
21449;BME280;10885;52.830;13.788;2023-12-20T16:28:59;100056.06;;;4.22;96.40
21449;BME280;10885;52.830;13.788;2023-12-20T16:34:02;100055.53;;;4.26;95.77
21449;BME280;10885;52.830;13.788;2023-12-20T16:39:09;100057.84;;;4.23;96.02
21449;BME280;10885;52.830;13.788;2023-12-20T16:44:11;100063.44;;;4.18;96.31
21449;BME280;10885;52.830;13.788;2023-12-20T16:49:14;100062.44;;;4.16;96.11
21449;BME280;10885;52.830;13.788;2023-12-20T16:54:17;100071.44;;;4.13;95.70
21449;BME280;10885;52.830;13.788;2023-12-20T16:59:19;100084.31;;;4.16;95.87
21449;BME280;10885;52.830;13.788;2023-12-20T17:04:22;100077.31;;;4.24;95.55
21449;BME280;10885;52.830;13.788;2023-12-20T17:09:26;100059.31;;;4.31;94.76
21449;BME280;10885;52.830;13.788;2023-12-20T17:14:33;100066.44;;;4.25;95.37
21449;BME280;10885;52.830;13.788;2023-12-20T17:19:36;100084.72;;;4.21;95.07
21449;BME280;10885;52.830;13.788;2023-12-20T17:24:39;100078.38;;;4.15;94.76
21449;BME280;10885;52.830;13.788;2023-12-20T17:29:41;100077.31;;;4.24;95.50
21449;BME280;10885;52.830;13.788;2023-12-20T17:34:44;100084.78;;;4.32;95.10
21449;BME280;10885;52.830;13.788;2023-12-20T17:39:47;100082.00;;;4.29;94.90
21449;BME280;10885;52.830;13.788;2023-12-20T17:44:49;100080.34;;;4.30;94.08
21449;BME280;10885;52.830;13.788;2023-12-20T17:49:52;100079.72;;;4.32;94.21
21449;BME280;10885;52.830;13.788;2023-12-20T17:54:55;100085.78;;;4.34;94.61
21449;BME280;10885;52.830;13.788;2023-12-20T18:00:17;100069.16;;;4.38;94.00
21449;BME280;10885;52.830;13.788;2023-12-20T18:05:21;100079.66;;;4.43;93.54
21449;BME280;10885;52.830;13.788;2023-12-20T18:10:24;100079.34;;;4.50;94.17
21449;BME280;10885;52.830;13.788;2023-12-20T18:15:26;100085.13;;;4.59;93.75
21449;BME280;10885;52.830;13.788;2023-12-20T18:20:29;100084.72;;;4.65;92.51
21449;BME280;10885;52.830;13.788;2023-12-20T18:25:32;100096.22;;;4.71;92.49
21449;BME280;10885;52.830;13.788;2023-12-20T18:30:35;100095.78;;;4.77;92.60
21449;BME280;10885;52.830;13.788;2023-12-20T18:35:37;100098.59;;;4.80;92.68
21449;BME280;10885;52.830;13.788;2023-12-20T18:40:42;100076.75;;;4.82;92.06
21449;BME280;10885;52.830;13.788;2023-12-20T18:45:50;100071.78;;;4.84;92.43
21449;BME280;10885;52.830;13.788;2023-12-20T18:50:53;100068.91;;;4.79;92.75
21449;BME280;10885;52.830;13.788;2023-12-20T18:55:55;100066.13;;;4.76;93.05
21449;BME280;10885;52.830;13.788;2023-12-20T19:00:58;100063.09;;;4.80;93.57
21449;BME280;10885;52.830;13.788;2023-12-20T19:06:03;100048.63;;;4.79;93.40
21449;BME280;10885;52.830;13.788;2023-12-20T19:11:06;100051.94;;;4.78;93.29
21449;BME280;10885;52.830;13.788;2023-12-20T19:16:08;100049.28;;;4.76;93.93
21449;BME280;10885;52.830;13.788;2023-12-20T19:21:11;100046.63;;;4.75;93.60
21449;BME280;10885;52.830;13.788;2023-12-20T19:26:14;100059.44;;;4.76;93.45
21449;BME280;10885;52.830;13.788;2023-12-20T19:31:16;100057.09;;;4.79;94.21
21449;BME280;10885;52.830;13.788;2023-12-20T19:36:19;100059.88;;;4.83;93.42
21449;BME280;10885;52.830;13.788;2023-12-20T19:41:22;100056.13;;;4.77;93.46
21449;BME280;10885;52.830;13.788;2023-12-20T19:46:24;100057.09;;;4.79;93.06
21449;BME280;10885;52.830;13.788;2023-12-20T19:51:27;100043.25;;;4.86;93.21
21449;BME280;10885;52.830;13.788;2023-12-20T19:56:30;100038.66;;;4.92;92.73
21449;BME280;10885;52.830;13.788;2023-12-20T20:01:33;100031.91;;;4.93;92.67
21449;BME280;10885;52.830;13.788;2023-12-20T20:06:38;100030.50;;;4.96;92.19
21449;BME280;10885;52.830;13.788;2023-12-20T20:11:41;100032.25;;;4.97;92.54
21449;BME280;10885;52.830;13.788;2023-12-20T20:16:44;100025.63;;;4.99;91.95
21449;BME280;10885;52.830;13.788;2023-12-20T20:21:47;100039.44;;;5.03;92.59
21449;BME280;10885;52.830;13.788;2023-12-20T20:26:51;100036.91;;;5.03;91.63
21449;BME280;10885;52.830;13.788;2023-12-20T20:31:53;100025.75;;;5.01;92.31
21449;BME280;10885;52.830;13.788;2023-12-20T20:36:56;100017.94;;;4.98;92.61
21449;BME280;10885;52.830;13.788;2023-12-20T20:41:59;99996.00;;;4.98;92.18
21449;BME280;10885;52.830;13.788;2023-12-20T20:47:02;100011.34;;;5.00;92.67
21449;BME280;10885;52.830;13.788;2023-12-20T20:52:04;99996.88;;;4.99;92.56
21449;BME280;10885;52.830;13.788;2023-12-20T20:57:07;99994.34;;;4.99;92.27
21449;BME280;10885;52.830;13.788;2023-12-20T21:02:10;99989.47;;;4.90;92.08
21449;BME280;10885;52.830;13.788;2023-12-20T21:07:13;99987.94;;;4.92;92.25
21449;BME280;10885;52.830;13.788;2023-12-20T21:12:15;99974.25;;;4.90;93.31
21449;BME280;10885;52.830;13.788;2023-12-20T21:17:18;99964.66;;;4.86;92.65
21449;BME280;10885;52.830;13.788;2023-12-20T21:22:21;99956.41;;;4.89;93.14
21449;BME280;10885;52.830;13.788;2023-12-20T21:27:23;99948.25;;;4.93;92.38
21449;BME280;10885;52.830;13.788;2023-12-20T21:32:26;99934.69;;;4.92;93.03
21449;BME280;10885;52.830;13.788;2023-12-20T21:37:29;99937.97;;;4.91;92.00
21449;BME280;10885;52.830;13.788;2023-12-20T21:42:31;99933.91;;;4.93;92.28
21449;BME280;10885;52.830;13.788;2023-12-20T21:47:34;99918.69;;;4.93;92.06
21449;BME280;10885;52.830;13.788;2023-12-20T21:52:37;99915.94;;;4.90;92.53
21449;BME280;10885;52.830;13.788;2023-12-20T21:57:40;99903.16;;;4.89;92.46
21449;BME280;10885;52.830;13.788;2023-12-20T22:02:42;99900.50;;;4.87;92.76
21449;BME280;10885;52.830;13.788;2023-12-20T22:07:46;99887.50;;;4.83;92.70
21449;BME280;10885;52.830;13.788;2023-12-20T22:12:49;99879.66;;;4.79;93.16
21449;BME280;10885;52.830;13.788;2023-12-20T22:17:51;99869.06;;;4.73;93.58
21449;BME280;10885;52.830;13.788;2023-12-20T22:22:54;99852.66;;;4.68;94.33
21449;BME280;10885;52.830;13.788;2023-12-20T22:27:57;99853.84;;;4.62;94.71
21449;BME280;10885;52.830;13.788;2023-12-20T22:32:59;99854.63;;;4.61;94.74
21449;BME280;10885;52.830;13.788;2023-12-20T22:38:02;99831.59;;;4.57;95.40
21449;BME280;10885;52.830;13.788;2023-12-20T22:43:05;99833.00;;;4.54;95.42
21449;BME280;10885;52.830;13.788;2023-12-20T22:48:08;99829.28;;;4.49;95.82
21449;BME280;10885;52.830;13.788;2023-12-20T22:53:11;99820.56;;;4.45;96.21
21449;BME280;10885;52.830;13.788;2023-12-20T22:58:13;99811.84;;;4.42;95.88
21449;BME280;10885;52.830;13.788;2023-12-20T23:03:16;99810.66;;;4.36;96.39
21449;BME280;10885;52.830;13.788;2023-12-20T23:08:19;99808.75;;;4.34;96.25
21449;BME280;10885;52.830;13.788;2023-12-20T23:13:21;99789.81;;;4.29;96.12
21449;BME280;10885;52.830;13.788;2023-12-20T23:18:24;99776.91;;;4.26;96.43
21449;BME280;10885;52.830;13.788;2023-12-20T23:23:27;99762.28;;;4.22;96.85
21449;BME280;10885;52.830;13.788;2023-12-20T23:28:29;99753.47;;;4.16;97.43
